Time;durP1;ratioP1;P1;durP2;ratioP2;P2;SDS_P1;SDS_P2;PMS_P1;PMS_P2;Temp;Humidity;BMP_temperature;BMP_pressure;BME280_temperature;BME280_humidity;BME280_pressure;Samples;Min_cycle;Max_cycle;Signal;HPM_P1;HPM_P2
2024/02/29 00:01:27;;;;;;;17.60;5.80;;;;;;;;;;5098873;28;20102;-66
2024/02/29 00:03:53;;;;;;;18.10;5.55;;;;;;;;;;5094428;28;20020;-65
2024/02/29 00:06:18;;;;;;;14.45;5.07;;;;;;;;;;5093498;28;20107;-66
2024/02/29 00:08:43;;;;;;;13.98;5.32;;;;;;;;;;5096323;28;20028;-66
2024/02/29 00:11:09;;;;;;;19.75;5.15;;;;;;;;;;5112418;28;20492;-61
2024/02/29 00:13:34;;;;;;;13.77;4.93;;;;;;;;;;5115365;28;20055;-67
2024/02/29 00:16:00;;;;;;;20.35;5.18;;;;;;;;;;5100621;28;20028;-66
2024/02/29 00:18:25;;;;;;;19.00;5.80;;;;;;;;;;5095254;28;20081;-66
2024/02/29 00:20:51;;;;;;;17.63;5.50;;;;;;;;;;5094595;28;20023;-66
2024/02/29 00:23:16;;;;;;;13.88;5.28;;;;;;;;;;5094948;28;20123;-66
2024/02/29 00:25:41;;;;;;;16.52;5.60;;;;;;;;;;5095249;28;20107;-66
2024/02/29 00:28:07;;;;;;;15.07;5.93;;;;;;;;;;5095185;28;20012;-66
2024/02/29 00:30:32;;;;;;;20.85;5.40;;;;;;;;;;5106055;28;20048;-65
2024/02/29 00:32:58;;;;;;;12.57;5.43;;;;;;;;;;5115664;28;20074;-66
2024/02/29 00:35:23;;;;;;;15.05;4.85;;;;;;;;;;5100188;27;20028;-66
2024/02/29 00:37:49;;;;;;;15.48;5.53;;;;;;;;;;5094576;28;20035;-66
2024/02/29 00:40:14;;;;;;;14.00;5.30;;;;;;;;;;5095168;28;20089;-67
2024/02/29 00:42:40;;;;;;;17.17;5.90;;;;;;;;;;5095409;28;20020;-67
2024/02/29 00:45:06;;;;;;;12.32;4.97;;;;;;;;;;5112957;28;20024;-69
2024/02/29 00:47:31;;;;;;;17.33;5.25;;;;;;;;;;5114846;28;20023;-67
2024/02/29 00:49:56;;;;;;;15.50;5.35;;;;;;;;;;5115172;28;20084;-67
2024/02/29 00:52:22;;;;;;;14.82;5.53;;;;;;;;;;5114923;28;20043;-66
2024/02/29 00:54:47;;;;;;;18.77;5.47;;;;;;;;;;5114307;28;20030;-65
2024/02/29 00:57:13;;;;;;;11.98;5.60;;;;;;;;;;5096856;28;20036;-66
2024/02/29 00:59:38;;;;;;;13.25;5.72;;;;;;;;;;5096187;28;20451;-67
2024/02/29 01:02:03;;;;;;;15.20;5.25;;;;;;;;;;5094517;28;20028;-70
2024/02/29 01:04:29;;;;;;;14.30;5.57;;;;;;;;;;5094078;28;20024;-65
2024/02/29 01:06:56;;;;;;;11.85;5.80;;;;;;;;;;5094036;28;20020;-67
2024/02/29 01:09:26;;;;;;;15.15;4.97;;;;;;;;;;5101927;28;20437;-66
2024/02/29 01:11:52;;;;;;;13.68;5.38;;;;;;;;;;5115026;27;20073;-68
2024/02/29 01:14:18;;;;;;;13.13;5.78;;;;;;;;;;5112352;28;20027;-67
2024/02/29 01:16:43;;;;;;;17.23;5.57;;;;;;;;;;5114643;27;20027;-67
2024/02/29 01:19:08;;;;;;;19.45;5.80;;;;;;;;;;5114974;28;20035;-68
2024/02/29 01:21:34;;;;;;;16.23;5.63;;;;;;;;;;5114754;28;20111;-67
2024/02/29 01:23:59;;;;;;;19.13;5.82;;;;;;;;;;5099611;28;20452;-67
2024/02/29 01:26:25;;;;;;;17.98;5.85;;;;;;;;;;5093664;28;20026;-66
2024/02/29 01:28:50;;;;;;;13.32;5.70;;;;;;;;;;5094998;28;20327;-69
2024/02/29 01:31:15;;;;;;;13.60;6.28;;;;;;;;;;5094301;28;20043;-69
2024/02/29 01:33:41;;;;;;;13.70;5.70;;;;;;;;;;5098618;28;20027;-66
2024/02/29 01:36:06;;;;;;;14.05;5.40;;;;;;;;;;5113759;28;20071;-66
2024/02/29 01:38:31;;;;;;;17.60;6.25;;;;;;;;;;5114153;28;20055;-67
2024/02/29 01:40:57;;;;;;;14.48;5.97;;;;;;;;;;5114082;28;20055;-65
2024/02/29 01:43:22;;;;;;;17.35;6.03;;;;;;;;;;5111764;28;20024;-66
2024/02/29 01:46:00;;;;;;;10.38;5.22;;;;;;;;;;5092902;28;20093;-67
2024/02/29 01:48:25;;;;;;;11.93;5.70;;;;;;;;;;5093086;28;20027;-65
2024/02/29 01:50:51;;;;;;;14.45;5.88;;;;;;;;;;5093167;28;20044;-68
2024/02/29 01:53:17;;;;;;;17.10;6.60;;;;;;;;;;5093283;28;20043;-67
2024/02/29 01:55:42;;;;;;;12.70;5.50;;;;;;;;;;5092601;28;20228;-67
2024/02/29 01:58:08;;;;;;;14.55;6.07;;;;;;;;;;5094301;28;20080;-66
2024/02/29 02:00:33;;;;;;;12.68;5.43;;;;;;;;;;5098916;28;20362;-65
2024/02/29 02:02:58;;;;;;;13.40;5.57;;;;;;;;;;5092713;28;20088;-70
2024/02/29 02:05:24;;;;;;;11.90;5.38;;;;;;;;;;5093376;28;20077;-67
2024/02/29 02:07:50;;;;;;;13.10;6.15;;;;;;;;;;5092622;28;20039;-69
2024/02/29 02:10:16;;;;;;;14.07;5.95;;;;;;;;;;5092791;28;20112;-64
2024/02/29 02:12:45;;;;;;;14.60;6.57;;;;;;;;;;5094590;28;20230;-65
2024/02/29 02:15:10;;;;;;;14.77;5.95;;;;;;;;;;5110724;28;20051;-66
2024/02/29 02:17:36;;;;;;;11.57;5.57;;;;;;;;;;5113178;28;20085;-67
2024/02/29 02:20:04;;;;;;;18.63;6.68;;;;;;;;;;5111740;28;20519;-66
2024/02/29 02:22:30;;;;;;;15.48;6.10;;;;;;;;;;5093989;28;20035;-65
2024/02/29 02:24:56;;;;;;;17.30;5.97;;;;;;;;;;5092408;28;20024;-66
2024/02/29 02:27:21;;;;;;;13.85;5.90;;;;;;;;;;5076211;28;20045;-63
2024/02/29 02:29:47;;;;;;;14.23;5.30;;;;;;;;;;5109823;28;20020;-64
2024/02/29 02:32:12;;;;;;;14.00;6.22;;;;;;;;;;5113063;28;20096;-66
2024/02/29 02:34:37;;;;;;;15.20;5.63;;;;;;;;;;5111115;28;20354;-70
2024/02/29 02:37:03;;;;;;;14.98;5.90;;;;;;;;;;5113274;28;20038;-66
2024/02/29 02:39:28;;;;;;;13.20;5.85;;;;;;;;;;5113051;28;20442;-66
2024/02/29 02:41:54;;;;;;;16.88;6.07;;;;;;;;;;5112307;28;20468;-68
2024/02/29 02:44:19;;;;;;;11.10;6.25;;;;;;;;;;5111128;28;20298;-68
2024/02/29 02:46:44;;;;;;;14.80;5.88;;;;;;;;;;5111067;28;20046;-66
2024/02/29 02:49:10;;;;;;;20.50;6.07;;;;;;;;;;5105240;28;20361;-68
2024/02/29 02:51:36;;;;;;;14.48;5.90;;;;;;;;;;5112427;28;20065;-70
2024/02/29 02:54:01;;;;;;;13.85;6.30;;;;;;;;;;5113050;28;20040;-69
2024/02/29 02:56:27;;;;;;;12.32;6.35;;;;;;;;;;5113292;28;20434;-67
2024/02/29 02:58:52;;;;;;;14.15;6.10;;;;;;;;;;5106941;28;20465;-66
2024/02/29 03:01:17;;;;;;;12.02;5.97;;;;;;;;;;5092319;28;20036;-72
2024/02/29 03:03:43;;;;;;;11.00;5.72;;;;;;;;;;5092498;28;20089;-70
2024/02/29 03:06:09;;;;;;;14.30;6.07;;;;;;;;;;5092689;28;20038;-67
2024/02/29 03:08:34;;;;;;;13.88;5.97;;;;;;;;;;5094415;28;20016;-65
2024/02/29 03:10:59;;;;;;;15.80;6.72;;;;;;;;;;5096111;28;20024;-67
2024/02/29 03:13:25;;;;;;;13.55;6.30;;;;;;;;;;5098401;28;20365;-67
2024/02/29 03:15:50;;;;;;;17.58;6.38;;;;;;;;;;5117192;28;20119;-66
2024/02/29 03:18:17;;;;;;;12.70;6.20;;;;;;;;;;5115162;28;20024;-65
2024/02/29 03:20:42;;;;;;;15.60;5.95;;;;;;;;;;5075747;28;20033;-65
2024/02/29 03:23:07;;;;;;;13.93;6.20;;;;;;;;;;5075833;28;20427;-65
2024/02/29 03:25:33;;;;;;;11.32;5.90;;;;;;;;;;5076453;28;20035;-65
2024/02/29 03:27:58;;;;;;;16.00;6.00;;;;;;;;;;5082177;28;20020;-65
2024/02/29 03:30:24;;;;;;;14.70;6.40;;;;;;;;;;5114792;28;20028;-66
2024/02/29 03:32:49;;;;;;;12.27;6.30;;;;;;;;;;5116432;27;20083;-68
2024/02/29 03:35:14;;;;;;;15.60;6.13;;;;;;;;;;5110200;28;20063;-67
2024/02/29 03:37:40;;;;;;;13.13;6.50;;;;;;;;;;5095727;28;20144;-67
2024/02/29 03:40:06;;;;;;;13.35;5.45;;;;;;;;;;5095714;28;20062;-68
2024/02/29 03:42:31;;;;;;;12.45;6.38;;;;;;;;;;5096599;28;20438;-67
2024/02/29 03:44:57;;;;;;;14.18;6.47;;;;;;;;;;5113673;28;20032;-68
2024/02/29 03:47:22;;;;;;;12.38;6.57;;;;;;;;;;5113513;28;20016;-68
2024/02/29 03:49:48;;;;;;;16.50;5.90;;;;;;;;;;5098941;28;20526;-69
2024/02/29 03:52:13;;;;;;;17.38;7.20;;;;;;;;;;5095090;28;20060;-67
2024/02/29 03:54:39;;;;;;;17.85;6.78;;;;;;;;;;5095666;28;20469;-71
2024/02/29 03:57:04;;;;;;;14.43;6.45;;;;;;;;;;5096483;28;20110;-67
2024/02/29 03:59:31;;;;;;;14.88;6.20;;;;;;;;;;5110960;28;20030;-67
2024/02/29 04:01:56;;;;;;;14.40;6.47;;;;;;;;;;5114122;28;20441;-68
2024/02/29 04:04:22;;;;;;;10.98;6.20;;;;;;;;;;5114958;28;20024;-64
2024/02/29 04:06:47;;;;;;;16.15;6.10;;;;;;;;;;5116032;28;20429;-68
2024/02/29 04:09:13;;;;;;;16.88;6.20;;;;;;;;;;5114193;28;20361;-67
2024/02/29 04:11:38;;;;;;;14.73;5.97;;;;;;;;;;5096943;28;20123;-67
2024/02/29 04:14:04;;;;;;;11.13;6.10;;;;;;;;;;5114160;28;20046;-66
2024/02/29 04:16:30;;;;;;;12.80;6.38;;;;;;;;;;5114944;28;20030;-68
2024/02/29 04:18:55;;;;;;;10.85;5.50;;;;;;;;;;5114664;28;20434;-66
2024/02/29 04:21:20;;;;;;;13.30;6.10;;;;;;;;;;5114153;28;20020;-67
2024/02/29 04:23:46;;;;;;;15.55;6.30;;;;;;;;;;5115549;28;20159;-67
2024/02/29 04:26:11;;;;;;;13.15;5.70;;;;;;;;;;5114582;28;20041;-66
2024/02/29 04:28:36;;;;;;;13.23;6.00;;;;;;;;;;5114374;28;20323;-66
2024/02/29 04:31:03;;;;;;;10.60;6.10;;;;;;;;;;5115421;28;20053;-65
2024/02/29 04:33:28;;;;;;;14.68;5.90;;;;;;;;;;5112926;28;20019;-66
2024/02/29 04:35:54;;;;;;;14.77;6.07;;;;;;;;;;5115079;28;20027;-66
2024/02/29 04:38:19;;;;;;;10.60;6.20;;;;;;;;;;5115130;28;20016;-66
2024/02/29 04:40:44;;;;;;;12.88;6.22;;;;;;;;;;5115478;28;20106;-65
2024/02/29 04:43:10;;;;;;;12.18;5.80;;;;;;;;;;5102454;28;20043;-66
2024/02/29 04:45:35;;;;;;;11.07;6.10;;;;;;;;;;5094375;28;20028;-66
2024/02/29 04:48:01;;;;;;;10.75;5.40;;;;;;;;;;5102790;28;20034;-67
2024/02/29 04:50:26;;;;;;;12.48;5.50;;;;;;;;;;5115076;28;20346;-66
2024/02/29 04:52:51;;;;;;;15.63;5.93;;;;;;;;;;5105395;28;20036;-65
2024/02/29 04:55:17;;;;;;;11.32;5.57;;;;;;;;;;5093058;28;20027;-65
2024/02/29 04:57:43;;;;;;;11.80;5.55;;;;;;;;;;5094280;28;20038;-65
2024/02/29 05:00:10;;;;;;;14.13;5.95;;;;;;;;;;5094641;28;20024;-66
2024/02/29 05:02:35;;;;;;;13.00;6.28;;;;;;;;;;5101798;28;20020;-66
2024/02/29 05:05:01;;;;;;;10.05;5.57;;;;;;;;;;5114398;27;20057;-65
2024/02/29 05:07:26;;;;;;;11.77;6.05;;;;;;;;;;5114164;28;20026;-63
2024/02/29 05:09:51;;;;;;;14.07;6.20;;;;;;;;;;5114308;28;20043;-68
2024/02/29 05:12:17;;;;;;;12.30;6.65;;;;;;;;;;5112960;28;20567;-67
2024/02/29 05:14:43;;;;;;;11.85;5.63;;;;;;;;;;5114310;28;20026;-66
2024/02/29 05:17:08;;;;;;;11.93;6.07;;;;;;;;;;5113306;28;20027;-67
2024/02/29 05:19:34;;;;;;;12.27;5.88;;;;;;;;;;5114505;28;20126;-67
2024/02/29 05:22:00;;;;;;;12.05;6.03;;;;;;;;;;5112104;28;20103;-67
2024/02/29 05:24:25;;;;;;;10.77;5.82;;;;;;;;;;5093902;28;20024;-69
2024/02/29 05:26:51;;;;;;;12.80;6.03;;;;;;;;;;5094684;28;20028;-68
2024/02/29 05:29:16;;;;;;;10.35;5.72;;;;;;;;;;5112857;28;20497;-67
2024/02/29 05:31:48;;;;;;;10.77;5.88;;;;;;;;;;5111096;28;20028;-61
2024/02/29 05:34:13;;;;;;;13.57;6.38;;;;;;;;;;5094415;28;20021;-63
2024/02/29 05:36:38;;;;;;;15.40;5.35;;;;;;;;;;5092287;28;20031;-63
2024/02/29 05:39:04;;;;;;;9.68;6.13;;;;;;;;;;5093363;28;20351;-63
2024/02/29 05:41:29;;;;;;;12.07;6.07;;;;;;;;;;5094524;28;20034;-57
2024/02/29 05:43:54;;;;;;;10.88;5.97;;;;;;;;;;5111641;28;20027;-56
2024/02/29 05:46:20;;;;;;;13.93;6.28;;;;;;;;;;5113550;28;20428;-57
2024/02/29 05:48:45;;;;;;;12.77;6.22;;;;;;;;;;5113855;28;20011;-59
2024/02/29 05:51:11;;;;;;;14.25;6.28;;;;;;;;;;5112882;28;20380;-58
2024/02/29 05:53:37;;;;;;;16.08;6.10;;;;;;;;;;5095634;28;20034;-58
2024/02/29 05:56:02;;;;;;;11.65;5.65;;;;;;;;;;5094307;28;20020;-59
2024/02/29 05:58:30;;;;;;;17.85;6.38;;;;;;;;;;5109786;28;20035;-55
2024/02/29 06:00:56;;;;;;;13.07;6.60;;;;;;;;;;5113579;28;20019;-57
2024/02/29 06:03:22;;;;;;;12.95;6.43;;;;;;;;;;5101040;28;20020;-58
2024/02/29 06:05:47;;;;;;;15.32;6.43;;;;;;;;;;5092742;28;20028;-63
2024/02/29 06:08:13;;;;;;;16.10;6.93;;;;;;;;;;5091239;28;20058;-66
2024/02/29 06:10:38;;;;;;;17.25;7.40;;;;;;;;;;5111035;28;20028;-70
2024/02/29 06:13:04;;;;;;;13.02;6.53;;;;;;;;;;5113203;28;20070;-57
2024/02/29 06:15:29;;;;;;;14.48;7.68;;;;;;;;;;5113387;28;20024;-68
2024/02/29 06:17:56;;;;;;;17.92;8.07;;;;;;;;;;5113591;28;20314;-70
2024/02/29 06:20:21;;;;;;;14.55;7.72;;;;;;;;;;5113417;28;20063;-58
2024/02/29 06:22:47;;;;;;;21.20;7.93;;;;;;;;;;5112887;28;20015;-62
2024/02/29 06:25:12;;;;;;;17.63;7.75;;;;;;;;;;5108434;28;20016;-58
2024/02/29 06:27:39;;;;;;;17.45;7.30;;;;;;;;;;5113336;28;20019;-61
2024/02/29 06:30:08;;;;;;;15.65;6.80;;;;;;;;;;5110433;28;20057;-60
2024/02/29 06:32:34;;;;;;;15.65;6.05;;;;;;;;;;5094011;28;20075;-58
2024/02/29 06:34:59;;;;;;;13.32;6.60;;;;;;;;;;5092990;28;20035;-56
2024/02/29 06:37:24;;;;;;;13.25;6.28;;;;;;;;;;5092807;28;20031;-60
2024/02/29 06:39:50;;;;;;;14.55;7.05;;;;;;;;;;5093450;28;20128;-61
2024/02/29 06:42:15;;;;;;;14.65;7.28;;;;;;;;;;5091748;28;20028;-62
2024/02/29 06:44:41;;;;;;;21.10;7.65;;;;;;;;;;5091993;28;20024;-59
2024/02/29 06:47:06;;;;;;;21.25;7.93;;;;;;;;;;5092922;28;20019;-60
2024/02/29 06:49:32;;;;;;;16.42;6.63;;;;;;;;;;5103437;28;20430;-64
2024/02/29 06:51:57;;;;;;;16.88;7.50;;;;;;;;;;5110662;28;20058;-60
2024/02/29 06:54:25;;;;;;;13.88;7.03;;;;;;;;;;5072115;28;20045;-61
2024/02/29 06:56:50;;;;;;;15.98;6.93;;;;;;;;;;5072482;28;20086;-61
2024/02/29 06:59:15;;;;;;;15.63;7.07;;;;;;;;;;5072334;28;20359;-58
2024/02/29 07:01:41;;;;;;;14.52;7.43;;;;;;;;;;5071755;28;20028;-60
2024/02/29 07:04:07;;;;;;;15.10;7.13;;;;;;;;;;5072193;28;20025;-62
2024/02/29 07:06:32;;;;;;;14.60;7.05;;;;;;;;;;5077324;28;20030;-62
2024/02/29 07:08:58;;;;;;;14.52;7.10;;;;;;;;;;5111622;28;20088;-60
2024/02/29 07:11:24;;;;;;;16.83;7.88;;;;;;;;;;5112366;28;20040;-62
2024/02/29 07:13:50;;;;;;;17.02;7.15;;;;;;;;;;5107517;28;20060;-62
2024/02/29 07:16:19;;;;;;;17.88;6.63;;;;;;;;;;5092605;28;20028;-60
2024/02/29 07:18:44;;;;;;;12.15;6.43;;;;;;;;;;5092307;28;20024;-61
2024/02/29 07:21:09;;;;;;;13.80;7.20;;;;;;;;;;5092739;28;20457;-61
2024/02/29 07:23:37;;;;;;;16.67;6.90;;;;;;;;;;5109778;28;20020;-62
2024/02/29 07:26:03;;;;;;;14.07;6.65;;;;;;;;;;5113062;28;20350;-61
2024/02/29 07:28:29;;;;;;;12.07;6.22;;;;;;;;;;5112388;28;20020;-61
2024/02/29 07:30:54;;;;;;;13.93;6.10;;;;;;;;;;5112029;28;20031;-62
2024/02/29 07:33:20;;;;;;;11.43;6.20;;;;;;;;;;5112224;28;20414;-60
2024/02/29 07:35:46;;;;;;;15.25;6.47;;;;;;;;;;5103434;28;20059;-61
2024/02/29 07:38:11;;;;;;;13.93;6.95;;;;;;;;;;5090969;28;20016;-62
2024/02/29 07:40:36;;;;;;;12.85;6.15;;;;;;;;;;5091865;28;20024;-59
2024/02/29 07:43:02;;;;;;;12.45;6.32;;;;;;;;;;5092138;28;20320;-61
2024/02/29 07:45:27;;;;;;;14.77;6.88;;;;;;;;;;5092949;28;20417;-66
2024/02/29 07:47:53;;;;;;;10.13;5.85;;;;;;;;;;5090588;28;20031;-61
2024/02/29 07:50:19;;;;;;;17.00;6.65;;;;;;;;;;5091893;28;20112;-62
2024/02/29 07:52:46;;;;;;;11.80;6.40;;;;;;;;;;5091954;28;20066;-63
2024/02/29 07:55:14;;;;;;;11.85;6.25;;;;;;;;;;5093575;28;20092;-63
2024/02/29 07:57:43;;;;;;;12.40;6.63;;;;;;;;;;5106972;28;20031;-63
2024/02/29 08:00:10;;;;;;;10.27;5.93;;;;;;;;;;5107080;28;20358;-68
2024/02/29 08:02:36;;;;;;;9.93;6.45;;;;;;;;;;5109522;28;20039;-62
2024/02/29 08:05:02;;;;;;;12.73;6.25;;;;;;;;;;5116372;28;20350;-63
2024/02/29 08:07:29;;;;;;;14.02;6.00;;;;;;;;;;5115986;28;20458;-62
2024/02/29 08:09:54;;;;;;;11.55;6.25;;;;;;;;;;5115495;28;20023;-61
2024/02/29 08:12:19;;;;;;;14.93;6.13;;;;;;;;;;5115538;28;20038;-63
2024/02/29 08:14:45;;;;;;;17.33;6.68;;;;;;;;;;5108351;28;20028;-64
2024/02/29 08:17:10;;;;;;;9.82;6.43;;;;;;;;;;5093499;28;20016;-66
2024/02/29 08:19:36;;;;;;;12.68;6.57;;;;;;;;;;5091831;28;21241;-65
2024/02/29 08:22:01;;;;;;;15.65;6.80;;;;;;;;;;5092264;28;20058;-65
2024/02/29 08:24:27;;;;;;;18.40;7.70;;;;;;;;;;5085901;28;20032;-72
2024/02/29 08:26:52;;;;;;;12.80;6.68;;;;;;;;;;5073292;28;20407;-66
2024/02/29 08:29:18;;;;;;;14.23;6.50;;;;;;;;;;5097912;28;20070;-70
2024/02/29 08:31:43;;;;;;;12.27;6.20;;;;;;;;;;5077989;28;20044;-69
2024/02/29 08:34:09;;;;;;;15.15;6.93;;;;;;;;;;5080477;28;20025;-67
2024/02/29 08:36:34;;;;;;;11.25;6.35;;;;;;;;;;5074207;28;20037;-68
2024/02/29 08:38:59;;;;;;;14.95;6.65;;;;;;;;;;5081766;28;20048;-68
2024/02/29 08:41:26;;;;;;;16.10;6.88;;;;;;;;;;5103220;28;20031;-69
2024/02/29 08:43:51;;;;;;;12.25;6.43;;;;;;;;;;5101945;28;20052;-71
2024/02/29 08:46:16;;;;;;;14.43;6.72;;;;;;;;;;5093876;28;20070;-66
2024/02/29 08:48:43;;;;;;;12.07;6.68;;;;;;;;;;5092202;28;20031;-68
2024/02/29 08:51:09;;;;;;;12.68;6.50;;;;;;;;;;5094023;28;20044;-65
2024/02/29 08:53:34;;;;;;;14.15;6.45;;;;;;;;;;5094053;28;20076;-67
2024/02/29 08:56:00;;;;;;;13.23;6.57;;;;;;;;;;5092867;28;20051;-62
2024/02/29 08:58:25;;;;;;;17.45;6.80;;;;;;;;;;5097315;28;20032;-66
2024/02/29 09:00:51;;;;;;;11.32;6.70;;;;;;;;;;5100032;28;20463;-66
2024/02/29 09:03:16;;;;;;;14.57;6.35;;;;;;;;;;5106733;28;20043;-69
2024/02/29 09:05:41;;;;;;;10.63;6.53;;;;;;;;;;5092409;28;20020;-67
2024/02/29 09:08:10;;;;;;;20.38;7.32;;;;;;;;;;5093458;28;20016;-65
2024/02/29 09:10:36;;;;;;;17.83;7.10;;;;;;;;;;5093411;28;20027;-70
2024/02/29 09:13:04;;;;;;;13.35;7.72;;;;;;;;;;5097223;28;20044;-68
2024/02/29 09:15:29;;;;;;;14.05;6.50;;;;;;;;;;5095758;28;20027;-69
2024/02/29 09:17:55;;;;;;;15.95;7.30;;;;;;;;;;5096518;28;20031;-71
2024/02/29 09:20:20;;;;;;;15.55;7.10;;;;;;;;;;5097455;28;20043;-71
2024/02/29 09:22:46;;;;;;;11.23;7.03;;;;;;;;;;5106274;28;20019;-71
2024/02/29 09:25:11;;;;;;;20.50;7.82;;;;;;;;;;5113618;28;20430;-69
2024/02/29 09:27:36;;;;;;;14.27;7.07;;;;;;;;;;5102756;28;20457;-70
2024/02/29 09:30:02;;;;;;;12.05;6.85;;;;;;;;;;5093166;28;20024;-67
2024/02/29 09:32:30;;;;;;;13.50;6.78;;;;;;;;;;5092000;28;20039;-67
2024/02/29 09:34:55;;;;;;;16.00;7.18;;;;;;;;;;5092547;28;20105;-67
2024/02/29 09:37:20;;;;;;;21.75;7.50;;;;;;;;;;5092907;28;20077;-71
2024/02/29 09:39:46;;;;;;;19.17;7.47;;;;;;;;;;5093461;28;20431;-68
2024/02/29 09:42:12;;;;;;;16.02;7.00;;;;;;;;;;5096411;28;20350;-67
2024/02/29 09:44:39;;;;;;;14.30;7.57;;;;;;;;;;5092759;28;20434;-62
2024/02/29 09:47:04;;;;;;;16.95;7.97;;;;;;;;;;5092018;28;20128;-67
2024/02/29 09:49:30;;;;;;;15.05;7.35;;;;;;;;;;5091951;28;20420;-69
2024/02/29 09:51:57;;;;;;;15.95;7.25;;;;;;;;;;5104202;28;20083;-66
2024/02/29 09:54:24;;;;;;;17.30;7.22;;;;;;;;;;5095109;28;20036;-68
2024/02/29 09:56:50;;;;;;;13.38;7.00;;;;;;;;;;5096274;28;20102;-67
2024/02/29 09:59:16;;;;;;;15.85;7.45;;;;;;;;;;5096312;28;20106;-69
2024/02/29 10:01:47;;;;;;;15.27;7.38;;;;;;;;;;5090235;28;20088;-63
2024/02/29 10:04:13;;;;;;;17.83;7.43;;;;;;;;;;5092145;28;20019;-64
2024/02/29 10:06:38;;;;;;;16.52;7.53;;;;;;;;;;5081050;28;20115;-62
2024/02/29 10:09:04;;;;;;;15.27;7.57;;;;;;;;;;5085633;28;20029;-65
2024/02/29 10:11:31;;;;;;;14.38;7.53;;;;;;;;;;5085732;28;20040;-66
2024/02/29 10:13:57;;;;;;;18.50;7.43;;;;;;;;;;5090714;28;20020;-65
2024/02/29 10:16:22;;;;;;;16.88;7.30;;;;;;;;;;5075948;28;20043;-66
2024/02/29 10:18:49;;;;;;;17.10;7.57;;;;;;;;;;5071187;28;20035;-63
2024/02/29 10:21:15;;;;;;;15.40;8.05;;;;;;;;;;5101780;28;20038;-63
2024/02/29 10:23:42;;;;;;;16.63;8.00;;;;;;;;;;5092216;28;20020;-63
2024/02/29 10:26:08;;;;;;;19.35;7.55;;;;;;;;;;5100197;28;20016;-62
2024/02/29 10:28:34;;;;;;;16.02;8.32;;;;;;;;;;5093080;28;20024;-62
2024/02/29 10:31:01;;;;;;;14.45;6.97;;;;;;;;;;5100394;28;20434;-62
2024/02/29 10:33:26;;;;;;;14.48;6.72;;;;;;;;;;5111170;28;20059;-62
2024/02/29 10:35:52;;;;;;;15.10;7.13;;;;;;;;;;5091871;28;20124;-63
2024/02/29 10:38:18;;;;;;;17.75;7.65;;;;;;;;;;5092693;28;20093;-63
2024/02/29 10:40:46;;;;;;;17.50;7.80;;;;;;;;;;5095988;28;20059;-63
2024/02/29 10:43:12;;;;;;;14.73;7.22;;;;;;;;;;5091924;28;20019;-62
2024/02/29 10:45:42;;;;;;;17.00;8.18;;;;;;;;;;5093011;28;20024;-63
2024/02/29 10:48:10;;;;;;;15.30;8.18;;;;;;;;;;5096736;28;20019;-63
2024/02/29 10:50:43;;;;;;;17.65;7.25;;;;;;;;;;5093886;28;20020;-63
2024/02/29 10:53:27;;;;;;;19.25;7.82;;;;;;;;;;5092131;28;20044;-64
2024/02/29 10:55:57;;;;;;;15.55;7.95;;;;;;;;;;5096042;28;20056;-62
2024/02/29 10:58:25;;;;;;;17.10;8.38;;;;;;;;;;5092351;28;20016;-63
2024/02/29 11:00:52;;;;;;;12.88;6.82;;;;;;;;;;5091897;28;20115;-62
2024/02/29 11:03:17;;;;;;;17.33;7.50;;;;;;;;;;5092034;28;20055;-62
2024/02/29 11:05:44;;;;;;;16.90;8.07;;;;;;;;;;5091507;28;20062;-64
2024/02/29 11:08:09;;;;;;;16.92;7.88;;;;;;;;;;5092658;28;20143;-63
2024/02/29 11:10:35;;;;;;;18.13;7.78;;;;;;;;;;5093217;28;20104;-64
2024/02/29 11:13:01;;;;;;;12.82;7.53;;;;;;;;;;5091376;28;20046;-65
2024/02/29 11:15:27;;;;;;;14.05;7.72;;;;;;;;;;5092182;28;20028;-65
2024/02/29 11:17:52;;;;;;;13.13;7.25;;;;;;;;;;5109655;28;20020;-63
2024/02/29 11:20:21;;;;;;;16.17;7.55;;;;;;;;;;5099075;28;20047;-64
2024/02/29 11:22:47;;;;;;;14.52;7.22;;;;;;;;;;5091573;28;20023;-63
2024/02/29 11:25:20;;;;;;;12.13;7.50;;;;;;;;;;5095340;28;20052;-63
2024/02/29 11:27:50;;;;;;;14.20;8.10;;;;;;;;;;5092003;28;20051;-63
2024/02/29 11:30:27;;;;;;;14.27;7.97;;;;;;;;;;5094530;28;20020;-63
2024/02/29 11:32:52;;;;;;;17.63;7.70;;;;;;;;;;5102379;28;20451;-67
2024/02/29 11:35:17;;;;;;;14.10;7.25;;;;;;;;;;5095640;28;20038;-64
2024/02/29 11:37:44;;;;;;;12.88;7.35;;;;;;;;;;5095655;28;20024;-64
2024/02/29 11:40:12;;;;;;;18.50;7.97;;;;;;;;;;5100778;28;20023;-64
2024/02/29 11:42:38;;;;;;;15.32;7.68;;;;;;;;;;5094736;28;20024;-66
2024/02/29 11:45:04;;;;;;;13.45;7.20;;;;;;;;;;5094544;28;20157;-63
2024/02/29 11:47:30;;;;;;;14.90;7.25;;;;;;;;;;5095627;28;20039;-63
2024/02/29 11:49:59;;;;;;;12.07;6.80;;;;;;;;;;5097309;28;20017;-64
2024/02/29 11:52:24;;;;;;;15.80;8.02;;;;;;;;;;5095255;28;20052;-66
2024/02/29 11:54:50;;;;;;;18.48;7.00;;;;;;;;;;5095790;28;20047;-67
2024/02/29 11:57:16;;;;;;;14.35;7.13;;;;;;;;;;5094327;28;20027;-67
2024/02/29 11:59:41;;;;;;;15.52;7.82;;;;;;;;;;5086837;28;20101;-64
2024/02/29 12:02:07;;;;;;;14.35;7.22;;;;;;;;;;5109401;28;20043;-72
2024/02/29 12:04:33;;;;;;;17.10;7.78;;;;;;;;;;5093567;28;20032;-70
2024/02/29 12:06:58;;;;;;;13.73;7.03;;;;;;;;;;5087854;28;20028;-68
2024/02/29 12:09:24;;;;;;;14.57;7.82;;;;;;;;;;5098044;28;20263;-66
2024/02/29 12:11:50;;;;;;;13.88;7.65;;;;;;;;;;5084181;28;20490;-68
2024/02/29 12:14:16;;;;;;;18.38;8.23;;;;;;;;;;5084628;28;20024;-65
2024/02/29 12:16:42;;;;;;;14.65;7.85;;;;;;;;;;5091882;28;20345;-58
2024/02/29 12:19:08;;;;;;;15.40;7.82;;;;;;;;;;5097011;28;20347;-67
2024/02/29 12:21:35;;;;;;;12.45;7.88;;;;;;;;;;5091942;28;20047;-65
2024/02/29 12:24:00;;;;;;;13.82;7.75;;;;;;;;;;5096201;28;20024;-66
2024/02/29 12:26:26;;;;;;;15.05;7.90;;;;;;;;;;5114797;27;20463;-65
2024/02/29 12:28:51;;;;;;;14.68;7.88;;;;;;;;;;5115022;28;20039;-65
2024/02/29 12:31:17;;;;;;;17.27;9.07;;;;;;;;;;5114372;28;20042;-65
2024/02/29 12:33:44;;;;;;;19.10;9.25;;;;;;;;;;5114102;28;20026;-66
2024/02/29 12:36:13;;;;;;;19.95;10.93;;;;;;;;;;5100100;28;20074;-65
2024/02/29 12:38:42;;;;;;;26.67;10.43;;;;;;;;;;5098193;28;20025;-66
2024/02/29 12:41:07;;;;;;;20.77;10.35;;;;;;;;;;5080018;28;20192;-65
2024/02/29 12:43:33;;;;;;;21.92;10.57;;;;;;;;;;5074113;28;20443;-66
2024/02/29 12:45:59;;;;;;;20.55;10.00;;;;;;;;;;5089420;28;20534;-64
2024/02/29 12:48:24;;;;;;;21.17;10.65;;;;;;;;;;5103342;28;20509;-62
2024/02/29 12:50:51;;;;;;;20.42;10.13;;;;;;;;;;5105336;28;20113;-63
2024/02/29 12:53:17;;;;;;;17.90;10.80;;;;;;;;;;5094202;28;20044;-62
2024/02/29 12:55:43;;;;;;;26.98;10.63;;;;;;;;;;5093016;28;20280;-64
2024/02/29 12:58:12;;;;;;;24.55;10.63;;;;;;;;;;5094472;28;20052;-63
2024/02/29 13:00:37;;;;;;;25.17;10.40;;;;;;;;;;5094331;28;20078;-60
2024/02/29 13:03:03;;;;;;;17.95;10.27;;;;;;;;;;5094691;28;20388;-63
2024/02/29 13:05:28;;;;;;;24.15;10.52;;;;;;;;;;5093516;28;20016;-62
2024/02/29 13:07:53;;;;;;;23.83;10.93;;;;;;;;;;5094006;28;20055;-63
2024/02/29 13:10:20;;;;;;;21.95;10.18;;;;;;;;;;5094066;28;20019;-63
2024/02/29 13:12:46;;;;;;;20.83;11.15;;;;;;;;;;5094138;28;20040;-61
2024/02/29 13:15:12;;;;;;;20.75;11.13;;;;;;;;;;5093578;28;20020;-62
2024/02/29 13:17:38;;;;;;;20.35;11.23;;;;;;;;;;5094223;28;20055;-62
2024/02/29 13:20:05;;;;;;;22.15;10.55;;;;;;;;;;5093109;28;20057;-63
2024/02/29 13:22:30;;;;;;;19.40;10.77;;;;;;;;;;5093821;28;20020;-62
2024/02/29 13:24:56;;;;;;;23.92;9.40;;;;;;;;;;5093455;28;20026;-61
2024/02/29 13:27:21;;;;;;;20.08;9.18;;;;;;;;;;5093460;28;20067;-61
2024/02/29 13:29:46;;;;;;;24.83;8.65;;;;;;;;;;5093831;28;20076;-61
2024/02/29 13:32:12;;;;;;;21.95;9.07;;;;;;;;;;5093635;28;20032;-62
2024/02/29 13:34:37;;;;;;;19.27;8.35;;;;;;;;;;5093895;28;20119;-62
2024/02/29 13:37:04;;;;;;;14.73;9.18;;;;;;;;;;5093261;28;20324;-63
2024/02/29 13:39:29;;;;;;;26.08;8.85;;;;;;;;;;5093434;28;20024;-62
2024/02/29 13:41:54;;;;;;;18.58;8.82;;;;;;;;;;5093327;28;20035;-63
2024/02/29 13:44:20;;;;;;;24.33;9.27;;;;;;;;;;5093781;28;20103;-62
2024/02/29 13:46:45;;;;;;;20.38;8.98;;;;;;;;;;5093374;28;20020;-63
2024/02/29 13:49:11;;;;;;;21.77;9.68;;;;;;;;;;5093239;28;20051;-63
2024/02/29 13:51:37;;;;;;;14.55;8.40;;;;;;;;;;5092301;28;20485;-63
2024/02/29 13:54:05;;;;;;;18.33;8.68;;;;;;;;;;5093060;28;20036;-63
2024/02/29 13:56:30;;;;;;;18.52;8.55;;;;;;;;;;5093029;28;20432;-62
2024/02/29 13:58:56;;;;;;;16.77;8.15;;;;;;;;;;5093002;28;20024;-61
2024/02/29 14:01:21;;;;;;;17.90;8.55;;;;;;;;;;5093497;28;20478;-63
2024/02/29 14:03:46;;;;;;;14.40;8.63;;;;;;;;;;5093086;28;20049;-61
2024/02/29 14:06:12;;;;;;;18.35;8.32;;;;;;;;;;5092822;28;20018;-62
2024/02/29 14:08:38;;;;;;;14.85;8.35;;;;;;;;;;5093503;28;20431;-64
2024/02/29 14:11:06;;;;;;;12.60;7.30;;;;;;;;;;5093044;28;20031;-61
2024/02/29 14:13:33;;;;;;;17.55;8.00;;;;;;;;;;5092984;28;20040;-63
2024/02/29 14:15:59;;;;;;;13.95;7.85;;;;;;;;;;5092943;28;20095;-64
2024/02/29 14:18:24;;;;;;;23.90;7.47;;;;;;;;;;5093265;28;20024;-62
2024/02/29 14:20:49;;;;;;;17.02;8.48;;;;;;;;;;5092571;28;20031;-61